sensor_id;sensor_type;location;lat;lon;timestamp;P1;durP1;ratioP1;P2;durP2;ratioP2
31660;SDS011;18267;52.234;7.444;2023-12-20T00:01:46;3.47;;;1.50;;
31660;SDS011;18267;52.234;7.444;2023-12-20T00:04:12;3.53;;;1.60;;
31660;SDS011;18267;52.234;7.444;2023-12-20T00:06:37;2.67;;;1.50;;
31660;SDS011;18267;52.234;7.444;2023-12-20T00:09:03;7.55;;;1.55;;
31660;SDS011;18267;52.234;7.444;2023-12-20T00:11:28;11.20;;;2.72;;
31660;SDS011;18267;52.234;7.444;2023-12-20T00:13:54;2.58;;;1.98;;
31660;SDS011;18267;52.234;7.444;2023-12-20T00:16:19;8.88;;;2.40;;
31660;SDS011;18267;52.234;7.444;2023-12-20T00:18:45;6.13;;;2.50;;
31660;SDS011;18267;52.234;7.444;2023-12-20T00:21:10;11.63;;;2.20;;
31660;SDS011;18267;52.234;7.444;2023-12-20T00:23:36;5.78;;;2.22;;
31660;SDS011;18267;52.234;7.444;2023-12-20T00:26:01;5.70;;;2.42;;
31660;SDS011;18267;52.234;7.444;2023-12-20T00:28:27;11.95;;;2.78;;
31660;SDS011;18267;52.234;7.444;2023-12-20T00:30:53;5.15;;;2.47;;
31660;SDS011;18267;52.234;7.444;2023-12-20T00:33:18;4.45;;;2.42;;
31660;SDS011;18267;52.234;7.444;2023-12-20T00:35:44;7.78;;;1.95;;
31660;SDS011;18267;52.234;7.444;2023-12-20T00:38:09;12.20;;;2.20;;
31660;SDS011;18267;52.234;7.444;2023-12-20T00:40:36;5.00;;;2.00;;
31660;SDS011;18267;52.234;7.444;2023-12-20T00:43:01;7.05;;;1.83;;
31660;SDS011;18267;52.234;7.444;2023-12-20T00:45:27;2.60;;;1.98;;
31660;SDS011;18267;52.234;7.444;2023-12-20T00:47:53;7.88;;;2.35;;
31660;SDS011;18267;52.234;7.444;2023-12-20T00:50:18;5.93;;;2.05;;
31660;SDS011;18267;52.234;7.444;2023-12-20T00:52:44;7.18;;;2.05;;
31660;SDS011;18267;52.234;7.444;2023-12-20T00:55:09;5.45;;;1.48;;
31660;SDS011;18267;52.234;7.444;2023-12-20T00:57:35;9.52;;;1.77;;
31660;SDS011;18267;52.234;7.444;2023-12-20T01:00:00;9.15;;;1.92;;
31660;SDS011;18267;52.234;7.444;2023-12-20T01:02:26;6.93;;;1.73;;
31660;SDS011;18267;52.234;7.444;2023-12-20T01:04:51;6.47;;;1.45;;
31660;SDS011;18267;52.234;7.444;2023-12-20T01:07:17;7.65;;;1.80;;
31660;SDS011;18267;52.234;7.444;2023-12-20T01:09:43;9.88;;;1.85;;
31660;SDS011;18267;52.234;7.444;2023-12-20T01:12:08;8.65;;;1.52;;
31660;SDS011;18267;52.234;7.444;2023-12-20T01:14:34;8.43;;;1.73;;
31660;SDS011;18267;52.234;7.444;2023-12-20T01:16:59;3.50;;;1.40;;
31660;SDS011;18267;52.234;7.444;2023-12-20T01:19:26;9.23;;;1.60;;
31660;SDS011;18267;52.234;7.444;2023-12-20T01:21:53;8.98;;;1.50;;
31660;SDS011;18267;52.234;7.444;2023-12-20T01:24:18;4.40;;;1.48;;
31660;SDS011;18267;52.234;7.444;2023-12-20T01:26:44;11.23;;;1.50;;
31660;SDS011;18267;52.234;7.444;2023-12-20T01:29:09;6.90;;;1.80;;
31660;SDS011;18267;52.234;7.444;2023-12-20T01:31:36;8.18;;;1.85;;
31660;SDS011;18267;52.234;7.444;2023-12-20T01:34:01;15.93;;;2.22;;
31660;SDS011;18267;52.234;7.444;2023-12-20T01:36:27;8.27;;;1.42;;
31660;SDS011;18267;52.234;7.444;2023-12-20T01:38:52;3.80;;;1.40;;
31660;SDS011;18267;52.234;7.444;2023-12-20T01:41:18;4.15;;;1.50;;
31660;SDS011;18267;52.234;7.444;2023-12-20T01:43:43;8.07;;;1.73;;
31660;SDS011;18267;52.234;7.444;2023-12-20T01:46:08;16.52;;;1.67;;
31660;SDS011;18267;52.234;7.444;2023-12-20T01:48:34;17.33;;;2.35;;
31660;SDS011;18267;52.234;7.444;2023-12-20T01:51:00;12.63;;;2.10;;
31660;SDS011;18267;52.234;7.444;2023-12-20T01:53:27;6.22;;;1.95;;
31660;SDS011;18267;52.234;7.444;2023-12-20T01:55:54;13.45;;;2.67;;
31660;SDS011;18267;52.234;7.444;2023-12-20T01:58:21;8.75;;;2.33;;
31660;SDS011;18267;52.234;7.444;2023-12-20T02:00:47;9.68;;;2.00;;
31660;SDS011;18267;52.234;7.444;2023-12-20T02:03:13;12.02;;;2.47;;
31660;SDS011;18267;52.234;7.444;2023-12-20T02:05:39;16.35;;;3.00;;
31660;SDS011;18267;52.234;7.444;2023-12-20T02:08:05;6.78;;;2.50;;
31660;SDS011;18267;52.234;7.444;2023-12-20T02:10:32;7.22;;;2.35;;
31660;SDS011;18267;52.234;7.444;2023-12-20T02:12:57;8.13;;;2.65;;
31660;SDS011;18267;52.234;7.444;2023-12-20T02:15:23;11.35;;;3.00;;
31660;SDS011;18267;52.234;7.444;2023-12-20T02:17:49;5.18;;;2.88;;
31660;SDS011;18267;52.234;7.444;2023-12-20T02:20:15;13.55;;;2.67;;
31660;SDS011;18267;52.234;7.444;2023-12-20T02:22:41;8.85;;;2.53;;
31660;SDS011;18267;52.234;7.444;2023-12-20T02:25:06;8.43;;;2.17;;
31660;SDS011;18267;52.234;7.444;2023-12-20T02:27:32;12.00;;;2.72;;
31660;SDS011;18267;52.234;7.444;2023-12-20T02:29:58;9.73;;;2.85;;
31660;SDS011;18267;52.234;7.444;2023-12-20T02:32:23;11.43;;;2.42;;
31660;SDS011;18267;52.234;7.444;2023-12-20T02:34:52;9.10;;;2.22;;
31660;SDS011;18267;52.234;7.444;2023-12-20T02:37:18;7.00;;;2.08;;
31660;SDS011;18267;52.234;7.444;2023-12-20T02:39:44;10.70;;;2.58;;
31660;SDS011;18267;52.234;7.444;2023-12-20T02:42:09;7.50;;;1.95;;
31660;SDS011;18267;52.234;7.444;2023-12-20T02:44:35;20.92;;;2.90;;
31660;SDS011;18267;52.234;7.444;2023-12-20T02:47:01;20.88;;;2.83;;
31660;SDS011;18267;52.234;7.444;2023-12-20T02:49:27;12.70;;;2.25;;
31660;SDS011;18267;52.234;7.444;2023-12-20T02:51:52;5.70;;;1.65;;
31660;SDS011;18267;52.234;7.444;2023-12-20T02:54:18;7.97;;;1.48;;
31660;SDS011;18267;52.234;7.444;2023-12-20T02:56:43;11.13;;;1.85;;
31660;SDS011;18267;52.234;7.444;2023-12-20T02:59:09;16.50;;;2.05;;
31660;SDS011;18267;52.234;7.444;2023-12-20T03:01:34;16.65;;;2.42;;
31660;SDS011;18267;52.234;7.444;2023-12-20T03:04:06;6.13;;;1.45;;
31660;SDS011;18267;52.234;7.444;2023-12-20T03:06:31;5.93;;;1.45;;
31660;SDS011;18267;52.234;7.444;2023-12-20T03:08:57;11.45;;;2.20;;
31660;SDS011;18267;52.234;7.444;2023-12-20T03:11:26;6.22;;;1.45;;
31660;SDS011;18267;52.234;7.444;2023-12-20T03:13:52;9.23;;;1.20;;
31660;SDS011;18267;52.234;7.444;2023-12-20T03:16:18;12.43;;;1.55;;
31660;SDS011;18267;52.234;7.444;2023-12-20T03:18:43;12.18;;;1.58;;
31660;SDS011;18267;52.234;7.444;2023-12-20T03:21:09;9.93;;;1.50;;
31660;SDS011;18267;52.234;7.444;2023-12-20T03:23:34;10.63;;;1.35;;
31660;SDS011;18267;52.234;7.444;2023-12-20T03:26:00;9.73;;;0.85;;
31660;SDS011;18267;52.234;7.444;2023-12-20T03:28:29;11.15;;;1.83;;
31660;SDS011;18267;52.234;7.444;2023-12-20T03:30:54;10.60;;;1.27;;
31660;SDS011;18267;52.234;7.444;2023-12-20T03:33:20;20.65;;;1.80;;
31660;SDS011;18267;52.234;7.444;2023-12-20T03:35:46;10.05;;;1.67;;
31660;SDS011;18267;52.234;7.444;2023-12-20T03:38:11;7.38;;;1.30;;
31660;SDS011;18267;52.234;7.444;2023-12-20T03:40:37;7.03;;;1.00;;
31660;SDS011;18267;52.234;7.444;2023-12-20T03:43:03;10.00;;;1.55;;
31660;SDS011;18267;52.234;7.444;2023-12-20T03:45:28;10.85;;;1.65;;
31660;SDS011;18267;52.234;7.444;2023-12-20T03:47:54;7.40;;;1.30;;
31660;SDS011;18267;52.234;7.444;2023-12-20T03:50:24;5.68;;;1.52;;
31660;SDS011;18267;52.234;7.444;2023-12-20T03:52:49;13.77;;;2.17;;
31660;SDS011;18267;52.234;7.444;2023-12-20T03:55:15;10.95;;;1.63;;
31660;SDS011;18267;52.234;7.444;2023-12-20T03:57:40;8.50;;;1.27;;
31660;SDS011;18267;52.234;7.444;2023-12-20T04:00:07;13.93;;;1.50;;
31660;SDS011;18267;52.234;7.444;2023-12-20T04:02:36;9.10;;;1.65;;
31660;SDS011;18267;52.234;7.444;2023-12-20T04:05:02;12.25;;;1.35;;
31660;SDS011;18267;52.234;7.444;2023-12-20T04:07:28;11.20;;;1.08;;
31660;SDS011;18267;52.234;7.444;2023-12-20T04:09:54;5.82;;;1.15;;
31660;SDS011;18267;52.234;7.444;2023-12-20T04:12:20;17.40;;;1.67;;
31660;SDS011;18267;52.234;7.444;2023-12-20T04:14:46;16.10;;;2.95;;
31660;SDS011;18267;52.234;7.444;2023-12-20T04:17:11;14.88;;;1.67;;
31660;SDS011;18267;52.234;7.444;2023-12-20T04:19:37;12.35;;;1.48;;
31660;SDS011;18267;52.234;7.444;2023-12-20T04:22:02;6.60;;;1.85;;
31660;SDS011;18267;52.234;7.444;2023-12-20T04:24:28;7.97;;;1.35;;
31660;SDS011;18267;52.234;7.444;2023-12-20T04:26:53;11.73;;;1.33;;
31660;SDS011;18267;52.234;7.444;2023-12-20T04:29:19;8.82;;;1.70;;
31660;SDS011;18267;52.234;7.444;2023-12-20T04:31:45;9.93;;;1.80;;
31660;SDS011;18267;52.234;7.444;2023-12-20T04:34:10;8.07;;;1.40;;
31660;SDS011;18267;52.234;7.444;2023-12-20T04:36:36;15.77;;;1.60;;
31660;SDS011;18267;52.234;7.444;2023-12-20T04:39:01;12.20;;;1.27;;
31660;SDS011;18267;52.234;7.444;2023-12-20T04:41:27;16.48;;;1.92;;
31660;SDS011;18267;52.234;7.444;2023-12-20T04:43:53;18.17;;;1.63;;
31660;SDS011;18267;52.234;7.444;2023-12-20T04:46:19;13.68;;;2.20;;
31660;SDS011;18267;52.234;7.444;2023-12-20T04:48:44;12.75;;;1.85;;
31660;SDS011;18267;52.234;7.444;2023-12-20T04:51:10;12.40;;;2.08;;
31660;SDS011;18267;52.234;7.444;2023-12-20T04:53:35;16.33;;;2.03;;
31660;SDS011;18267;52.234;7.444;2023-12-20T04:56:01;10.02;;;1.17;;
31660;SDS011;18267;52.234;7.444;2023-12-20T04:58:26;13.95;;;2.20;;
31660;SDS011;18267;52.234;7.444;2023-12-20T05:00:52;11.32;;;1.80;;
31660;SDS011;18267;52.234;7.444;2023-12-20T05:03:18;10.52;;;2.00;;
31660;SDS011;18267;52.234;7.444;2023-12-20T05:05:43;18.73;;;1.70;;
31660;SDS011;18267;52.234;7.444;2023-12-20T05:08:09;18.95;;;2.35;;
31660;SDS011;18267;52.234;7.444;2023-12-20T05:10:34;9.77;;;1.75;;
31660;SDS011;18267;52.234;7.444;2023-12-20T05:13:01;7.13;;;1.38;;
31660;SDS011;18267;52.234;7.444;2023-12-20T05:15:26;8.98;;;1.80;;
31660;SDS011;18267;52.234;7.444;2023-12-20T05:17:52;21.02;;;2.20;;
31660;SDS011;18267;52.234;7.444;2023-12-20T05:20:18;9.77;;;1.67;;
31660;SDS011;18267;52.234;7.444;2023-12-20T05:22:43;6.75;;;1.83;;
31660;SDS011;18267;52.234;7.444;2023-12-20T05:25:10;12.40;;;1.98;;
31660;SDS011;18267;52.234;7.444;2023-12-20T05:27:35;9.65;;;2.03;;
31660;SDS011;18267;52.234;7.444;2023-12-20T05:30:01;15.25;;;2.53;;
31660;SDS011;18267;52.234;7.444;2023-12-20T05:32:27;10.40;;;2.42;;
31660;SDS011;18267;52.234;7.444;2023-12-20T05:34:52;21.73;;;2.95;;
31660;SDS011;18267;52.234;7.444;2023-12-20T05:37:18;8.10;;;1.85;;
31660;SDS011;18267;52.234;7.444;2023-12-20T05:39:43;15.57;;;2.45;;
31660;SDS011;18267;52.234;7.444;2023-12-20T05:42:09;10.90;;;2.50;;
31660;SDS011;18267;52.234;7.444;2023-12-20T05:44:34;9.38;;;2.20;;
31660;SDS011;18267;52.234;7.444;2023-12-20T05:47:00;9.45;;;2.30;;
31660;SDS011;18267;52.234;7.444;2023-12-20T05:49:26;13.32;;;2.70;;
31660;SDS011;18267;52.234;7.444;2023-12-20T05:51:51;12.05;;;2.38;;
31660;SDS011;18267;52.234;7.444;2023-12-20T05:54:17;13.15;;;2.72;;
31660;SDS011;18267;52.234;7.444;2023-12-20T05:56:42;7.43;;;2.00;;
31660;SDS011;18267;52.234;7.444;2023-12-20T05:59:08;24.63;;;2.67;;
31660;SDS011;18267;52.234;7.444;2023-12-20T06:01:34;24.33;;;2.78;;
31660;SDS011;18267;52.234;7.444;2023-12-20T06:03:59;16.55;;;2.45;;
31660;SDS011;18267;52.234;7.444;2023-12-20T06:06:25;16.20;;;2.60;;
31660;SDS011;18267;52.234;7.444;2023-12-20T06:08:50;9.20;;;1.95;;
31660;SDS011;18267;52.234;7.444;2023-12-20T06:11:16;15.02;;;3.28;;
31660;SDS011;18267;52.234;7.444;2023-12-20T06:13:41;13.23;;;2.05;;
31660;SDS011;18267;52.234;7.444;2023-12-20T06:16:07;15.60;;;3.08;;
31660;SDS011;18267;52.234;7.444;2023-12-20T06:18:33;10.52;;;1.70;;
31660;SDS011;18267;52.234;7.444;2023-12-20T06:20:58;19.13;;;2.53;;
31660;SDS011;18267;52.234;7.444;2023-12-20T06:23:24;8.90;;;1.80;;
31660;SDS011;18267;52.234;7.444;2023-12-20T06:25:49;15.77;;;2.50;;
31660;SDS011;18267;52.234;7.444;2023-12-20T06:28:15;14.82;;;2.28;;
31660;SDS011;18267;52.234;7.444;2023-12-20T06:30:40;18.75;;;2.33;;
31660;SDS011;18267;52.234;7.444;2023-12-20T06:33:06;9.15;;;1.98;;
31660;SDS011;18267;52.234;7.444;2023-12-20T06:35:32;23.08;;;2.30;;
31660;SDS011;18267;52.234;7.444;2023-12-20T06:37:57;11.55;;;1.80;;
31660;SDS011;18267;52.234;7.444;2023-12-20T06:40:23;15.40;;;2.10;;
31660;SDS011;18267;52.234;7.444;2023-12-20T06:42:48;15.35;;;2.30;;
31660;SDS011;18267;52.234;7.444;2023-12-20T06:45:14;22.45;;;2.08;;
31660;SDS011;18267;52.234;7.444;2023-12-20T06:47:39;21.27;;;2.42;;
31660;SDS011;18267;52.234;7.444;2023-12-20T06:50:05;15.88;;;2.13;;
31660;SDS011;18267;52.234;7.444;2023-12-20T06:52:33;11.15;;;1.85;;
31660;SDS011;18267;52.234;7.444;2023-12-20T06:54:58;9.77;;;1.75;;
31660;SDS011;18267;52.234;7.444;2023-12-20T06:57:24;8.60;;;1.98;;
31660;SDS011;18267;52.234;7.444;2023-12-20T06:59:51;29.88;;;2.90;;
31660;SDS011;18267;52.234;7.444;2023-12-20T07:02:17;10.88;;;2.45;;
31660;SDS011;18267;52.234;7.444;2023-12-20T07:04:42;23.35;;;2.25;;
31660;SDS011;18267;52.234;7.444;2023-12-20T07:07:08;11.70;;;2.20;;
31660;SDS011;18267;52.234;7.444;2023-12-20T07:09:33;16.45;;;1.80;;
31660;SDS011;18267;52.234;7.444;2023-12-20T07:11:59;19.92;;;2.45;;
31660;SDS011;18267;52.234;7.444;2023-12-20T07:14:25;15.10;;;2.55;;
31660;SDS011;18267;52.234;7.444;2023-12-20T07:16:51;16.52;;;1.75;;
31660;SDS011;18267;52.234;7.444;2023-12-20T07:19:16;14.07;;;1.92;;
31660;SDS011;18267;52.234;7.444;2023-12-20T07:21:42;14.52;;;1.70;;
31660;SDS011;18267;52.234;7.444;2023-12-20T07:24:08;17.48;;;2.20;;
31660;SDS011;18267;52.234;7.444;2023-12-20T07:26:33;16.48;;;2.17;;
31660;SDS011;18267;52.234;7.444;2023-12-20T07:29:00;20.00;;;1.88;;
31660;SDS011;18267;52.234;7.444;2023-12-20T07:31:25;12.05;;;1.48;;
31660;SDS011;18267;52.234;7.444;2023-12-20T07:33:51;8.48;;;1.60;;
31660;SDS011;18267;52.234;7.444;2023-12-20T07:36:16;16.13;;;1.98;;
31660;SDS011;18267;52.234;7.444;2023-12-20T07:38:42;13.23;;;1.75;;
31660;SDS011;18267;52.234;7.444;2023-12-20T07:41:09;19.30;;;2.05;;
31660;SDS011;18267;52.234;7.444;2023-12-20T07:43:35;11.85;;;2.13;;
31660;SDS011;18267;52.234;7.444;2023-12-20T07:46:07;7.03;;;1.52;;
31660;SDS011;18267;52.234;7.444;2023-12-20T07:48:36;12.38;;;1.58;;
31660;SDS011;18267;52.234;7.444;2023-12-20T07:51:03;12.27;;;1.88;;
31660;SDS011;18267;52.234;7.444;2023-12-20T07:53:30;16.67;;;2.13;;
31660;SDS011;18267;52.234;7.444;2023-12-20T07:55:56;18.98;;;2.40;;
31660;SDS011;18267;52.234;7.444;2023-12-20T07:58:21;14.10;;;2.85;;
31660;SDS011;18267;52.234;7.444;2023-12-20T08:00:47;19.95;;;2.45;;
31660;SDS011;18267;52.234;7.444;2023-12-20T08:03:12;11.35;;;1.83;;
31660;SDS011;18267;52.234;7.444;2023-12-20T08:05:38;30.00;;;3.17;;
31660;SDS011;18267;52.234;7.444;2023-12-20T08:08:05;13.65;;;2.30;;
31660;SDS011;18267;52.234;7.444;2023-12-20T08:10:31;18.98;;;2.28;;
31660;SDS011;18267;52.234;7.444;2023-12-20T08:12:57;9.57;;;1.50;;
31660;SDS011;18267;52.234;7.444;2023-12-20T08:15:22;10.90;;;2.13;;
31660;SDS011;18267;52.234;7.444;2023-12-20T08:17:48;15.02;;;1.73;;
31660;SDS011;18267;52.234;7.444;2023-12-20T08:20:15;9.98;;;1.63;;
31660;SDS011;18267;52.234;7.444;2023-12-20T08:22:41;17.00;;;1.90;;
31660;SDS011;18267;52.234;7.444;2023-12-20T08:25:07;14.80;;;2.00;;
31660;SDS011;18267;52.234;7.444;2023-12-20T08:27:33;18.83;;;2.40;;
31660;SDS011;18267;52.234;7.444;2023-12-20T08:30:02;18.13;;;2.70;;
31660;SDS011;18267;52.234;7.444;2023-12-20T08:32:27;9.80;;;2.63;;
31660;SDS011;18267;52.234;7.444;2023-12-20T08:34:53;16.92;;;2.95;;
31660;SDS011;18267;52.234;7.444;2023-12-20T08:37:18;18.52;;;2.42;;
31660;SDS011;18267;52.234;7.444;2023-12-20T08:39:44;10.38;;;2.53;;
31660;SDS011;18267;52.234;7.444;2023-12-20T08:42:10;8.82;;;2.08;;
31660;SDS011;18267;52.234;7.444;2023-12-20T08:44:35;12.70;;;2.20;;
31660;SDS011;18267;52.234;7.444;2023-12-20T08:47:01;14.70;;;2.33;;
31660;SDS011;18267;52.234;7.444;2023-12-20T08:49:26;12.60;;;2.63;;
31660;SDS011;18267;52.234;7.444;2023-12-20T08:51:53;8.98;;;2.15;;
31660;SDS011;18267;52.234;7.444;2023-12-20T08:54:18;15.88;;;2.08;;
31660;SDS011;18267;52.234;7.444;2023-12-20T08:56:44;9.32;;;1.83;;
31660;SDS011;18267;52.234;7.444;2023-12-20T08:59:11;11.57;;;1.80;;
31660;SDS011;18267;52.234;7.444;2023-12-20T09:01:37;20.02;;;2.08;;
31660;SDS011;18267;52.234;7.444;2023-12-20T09:04:02;20.17;;;3.10;;
31660;SDS011;18267;52.234;7.444;2023-12-20T09:06:28;14.00;;;2.10;;
31660;SDS011;18267;52.234;7.444;2023-12-20T09:08:53;16.58;;;2.20;;
31660;SDS011;18267;52.234;7.444;2023-12-20T09:11:19;10.50;;;2.03;;
31660;SDS011;18267;52.234;7.444;2023-12-20T09:13:44;13.55;;;2.15;;
31660;SDS011;18267;52.234;7.444;2023-12-20T09:16:10;12.00;;;2.92;;
31660;SDS011;18267;52.234;7.444;2023-12-20T09:18:35;11.98;;;2.75;;
31660;SDS011;18267;52.234;7.444;2023-12-20T09:21:01;11.38;;;2.38;;
31660;SDS011;18267;52.234;7.444;2023-12-20T09:23:27;10.80;;;2.10;;
31660;SDS011;18267;52.234;7.444;2023-12-20T09:25:53;14.45;;;2.47;;
31660;SDS011;18267;52.234;7.444;2023-12-20T09:28:19;10.63;;;2.28;;
31660;SDS011;18267;52.234;7.444;2023-12-20T09:30:44;23.17;;;2.70;;
31660;SDS011;18267;52.234;7.444;2023-12-20T09:33:11;18.85;;;2.55;;
31660;SDS011;18267;52.234;7.444;2023-12-20T09:35:36;16.13;;;2.30;;
31660;SDS011;18267;52.234;7.444;2023-12-20T09:38:02;20.02;;;2.53;;
31660;SDS011;18267;52.234;7.444;2023-12-20T09:40:28;21.75;;;2.70;;
31660;SDS011;18267;52.234;7.444;2023-12-20T09:42:57;17.08;;;3.22;;
31660;SDS011;18267;52.234;7.444;2023-12-20T09:45:26;15.65;;;1.90;;
31660;SDS011;18267;52.234;7.444;2023-12-20T09:47:52;14.95;;;2.80;;
31660;SDS011;18267;52.234;7.444;2023-12-20T09:50:19;16.60;;;2.47;;
31660;SDS011;18267;52.234;7.444;2023-12-20T09:52:47;17.25;;;2.00;;
31660;SDS011;18267;52.234;7.444;2023-12-20T09:55:18;13.15;;;2.17;;
31660;SDS011;18267;52.234;7.444;2023-12-20T09:57:44;8.80;;;1.20;;
31660;SDS011;18267;52.234;7.444;2023-12-20T10:00:14;12.23;;;1.60;;
31660;SDS011;18267;52.234;7.444;2023-12-20T10:03:01;9.02;;;2.30;;
31660;SDS011;18267;52.234;7.444;2023-12-20T10:07:53;20.15;;;2.33;;
31660;SDS011;18267;52.234;7.444;2023-12-20T10:10:18;5.47;;;1.30;;
31660;SDS011;18267;52.234;7.444;2023-12-20T10:13:03;5.10;;;1.60;;
31660;SDS011;18267;52.234;7.444;2023-12-20T10:15:30;14.48;;;1.67;;
31660;SDS011;18267;52.234;7.444;2023-12-20T10:17:56;8.90;;;1.63;;
31660;SDS011;18267;52.234;7.444;2023-12-20T10:20:22;6.85;;;1.85;;
31660;SDS011;18267;52.234;7.444;2023-12-20T10:22:49;15.77;;;2.13;;
31660;SDS011;18267;52.234;7.444;2023-12-20T10:25:14;8.75;;;2.30;;
31660;SDS011;18267;52.234;7.444;2023-12-20T10:27:40;21.65;;;1.98;;
31660;SDS011;18267;52.234;7.444;2023-12-20T10:30:05;15.20;;;1.60;;
31660;SDS011;18267;52.234;7.444;2023-12-20T10:32:31;10.27;;;2.50;;
31660;SDS011;18267;52.234;7.444;2023-12-20T10:34:57;5.47;;;1.70;;
31660;SDS011;18267;52.234;7.444;2023-12-20T10:37:24;13.13;;;2.72;;
31660;SDS011;18267;52.234;7.444;2023-12-20T10:39:50;7.72;;;1.73;;
31660;SDS011;18267;52.234;7.444;2023-12-20T10:42:21;15.45;;;1.95;;
31660;SDS011;18267;52.234;7.444;2023-12-20T10:44:47;19.63;;;2.30;;
31660;SDS011;18267;52.234;7.444;2023-12-20T10:47:14;9.75;;;1.75;;
31660;SDS011;18267;52.234;7.444;2023-12-20T10:49:41;19.27;;;2.65;;
31660;SDS011;18267;52.234;7.444;2023-12-20T10:52:07;13.48;;;2.00;;
31660;SDS011;18267;52.234;7.444;2023-12-20T10:54:33;11.88;;;1.95;;
31660;SDS011;18267;52.234;7.444;2023-12-20T10:56:59;13.23;;;2.47;;
31660;SDS011;18267;52.234;7.444;2023-12-20T10:59:25;10.63;;;1.90;;
31660;SDS011;18267;52.234;7.444;2023-12-20T11:01:54;4.55;;;1.55;;
31660;SDS011;18267;52.234;7.444;2023-12-20T11:04:23;14.15;;;2.10;;
31660;SDS011;18267;52.234;7.444;2023-12-20T11:06:58;10.93;;;2.15;;
31660;SDS011;18267;52.234;7.444;2023-12-20T11:09:38;8.70;;;2.05;;
31660;SDS011;18267;52.234;7.444;2023-12-20T11:12:31;15.30;;;2.20;;
31660;SDS011;18267;52.234;7.444;2023-12-20T11:15:02;10.52;;;2.00;;
31660;SDS011;18267;52.234;7.444;2023-12-20T11:17:29;11.52;;;2.17;;
31660;SDS011;18267;52.234;7.444;2023-12-20T11:22:22;8.43;;;2.17;;
31660;SDS011;18267;52.234;7.444;2023-12-20T11:24:53;18.88;;;2.17;;
31660;SDS011;18267;52.234;7.444;2023-12-20T11:27:20;10.82;;;1.90;;
31660;SDS011;18267;52.234;7.444;2023-12-20T11:29:53;17.85;;;2.67;;
31660;SDS011;18267;52.234;7.444;2023-12-20T11:34:56;11.82;;;2.17;;
31660;SDS011;18267;52.234;7.444;2023-12-20T11:37:30;9.57;;;2.20;;
31660;SDS011;18267;52.234;7.444;2023-12-20T11:40:05;10.68;;;2.10;;
31660;SDS011;18267;52.234;7.444;2023-12-20T11:42:40;12.15;;;1.92;;
31660;SDS011;18267;52.234;7.444;2023-12-20T11:45:14;18.70;;;2.22;;
31660;SDS011;18267;52.234;7.444;2023-12-20T11:47:46;16.48;;;2.10;;
31660;SDS011;18267;52.234;7.444;2023-12-20T11:50:19;12.93;;;1.92;;
31660;SDS011;18267;52.234;7.444;2023-12-20T11:52:46;12.55;;;2.28;;
31660;SDS011;18267;52.234;7.444;2023-12-20T11:55:12;7.97;;;1.67;;
31660;SDS011;18267;52.234;7.444;2023-12-20T11:57:38;6.97;;;1.67;;
31660;SDS011;18267;52.234;7.444;2023-12-20T12:00:05;15.60;;;2.03;;
31660;SDS011;18267;52.234;7.444;2023-12-20T12:02:31;9.55;;;2.35;;
31660;SDS011;18267;52.234;7.444;2023-12-20T12:04:57;8.00;;;1.42;;
31660;SDS011;18267;52.234;7.444;2023-12-20T12:07:24;7.53;;;1.13;;
31660;SDS011;18267;52.234;7.444;2023-12-20T12:09:50;5.68;;;0.77;;
31660;SDS011;18267;52.234;7.444;2023-12-20T12:12:16;5.25;;;0.98;;
31660;SDS011;18267;52.234;7.444;2023-12-20T12:14:43;9.07;;;1.75;;
31660;SDS011;18267;52.234;7.444;2023-12-20T12:17:13;5.68;;;0.80;;
31660;SDS011;18267;52.234;7.444;2023-12-20T12:19:39;6.15;;;0.70;;
31660;SDS011;18267;52.234;7.444;2023-12-20T12:22:06;6.07;;;0.70;;
31660;SDS011;18267;52.234;7.444;2023-12-20T12:24:38;4.70;;;0.95;;
31660;SDS011;18267;52.234;7.444;2023-12-20T12:27:07;5.70;;;0.65;;
31660;SDS011;18267;52.234;7.444;2023-12-20T12:29:36;4.60;;;0.63;;
31660;SDS011;18267;52.234;7.444;2023-12-20T12:32:08;3.30;;;0.80;;
31660;SDS011;18267;52.234;7.444;2023-12-20T12:34:35;4.75;;;0.75;;
31660;SDS011;18267;52.234;7.444;2023-12-20T12:37:01;3.60;;;0.60;;
31660;SDS011;18267;52.234;7.444;2023-12-20T12:39:29;5.07;;;0.90;;
31660;SDS011;18267;52.234;7.444;2023-12-20T12:41:55;9.73;;;0.65;;
31660;SDS011;18267;52.234;7.444;2023-12-20T12:44:21;1.75;;;0.57;;
31660;SDS011;18267;52.234;7.444;2023-12-20T12:46:49;9.85;;;1.10;;
31660;SDS011;18267;52.234;7.444;2023-12-20T12:49:16;8.32;;;0.77;;
31660;SDS011;18267;52.234;7.444;2023-12-20T12:51:42;3.03;;;0.20;;
31660;SDS011;18267;52.234;7.444;2023-12-20T12:54:08;7.82;;;0.70;;
31660;SDS011;18267;52.234;7.444;2023-12-20T12:56:34;5.35;;;0.45;;
31660;SDS011;18267;52.234;7.444;2023-12-20T12:59:01;12.98;;;0.80;;
31660;SDS011;18267;52.234;7.444;2023-12-20T13:01:27;3.58;;;0.88;;
31660;SDS011;18267;52.234;7.444;2023-12-20T13:03:52;3.80;;;0.73;;
31660;SDS011;18267;52.234;7.444;2023-12-20T13:06:19;4.13;;;0.57;;
31660;SDS011;18267;52.234;7.444;2023-12-20T13:08:45;8.90;;;1.08;;
31660;SDS011;18267;52.234;7.444;2023-12-20T13:11:10;3.05;;;0.68;;
31660;SDS011;18267;52.234;7.444;2023-12-20T13:13:36;7.55;;;0.60;;
31660;SDS011;18267;52.234;7.444;2023-12-20T13:16:01;3.42;;;0.57;;
31660;SDS011;18267;52.234;7.444;2023-12-20T13:18:27;5.63;;;0.68;;
31660;SDS011;18267;52.234;7.444;2023-12-20T13:20:55;2.58;;;0.38;;
31660;SDS011;18267;52.234;7.444;2023-12-20T13:23:20;2.42;;;0.57;;
31660;SDS011;18267;52.234;7.444;2023-12-20T13:25:46;7.38;;;1.02;;
31660;SDS011;18267;52.234;7.444;2023-12-20T13:28:11;4.20;;;0.30;;
31660;SDS011;18267;52.234;7.444;2023-12-20T13:30:37;4.38;;;0.55;;
31660;SDS011;18267;52.234;7.444;2023-12-20T13:33:05;1.48;;;0.30;;
31660;SDS011;18267;52.234;7.444;2023-12-20T13:35:31;2.03;;;0.30;;
31660;SDS011;18267;52.234;7.444;2023-12-20T13:37:58;5.85;;;0.60;;
31660;SDS011;18267;52.234;7.444;2023-12-20T13:40:24;3.90;;;0.45;;
31660;SDS011;18267;52.234;7.444;2023-12-20T13:42:49;10.50;;;0.90;;
31660;SDS011;18267;52.234;7.444;2023-12-20T13:45:15;1.13;;;0.68;;
31660;SDS011;18267;52.234;7.444;2023-12-20T13:47:41;8.18;;;0.70;;
31660;SDS011;18267;52.234;7.444;2023-12-20T13:50:06;3.72;;;0.47;;
31660;SDS011;18267;52.234;7.444;2023-12-20T13:52:32;6.20;;;0.70;;
31660;SDS011;18267;52.234;7.444;2023-12-20T13:54:58;1.30;;;0.40;;
31660;SDS011;18267;52.234;7.444;2023-12-20T13:57:23;5.07;;;0.60;;
31660;SDS011;18267;52.234;7.444;2023-12-20T13:59:49;4.32;;;0.52;;
31660;SDS011;18267;52.234;7.444;2023-12-20T14:02:14;3.20;;;0.55;;
31660;SDS011;18267;52.234;7.444;2023-12-20T14:04:41;5.22;;;0.68;;
31660;SDS011;18267;52.234;7.444;2023-12-20T14:07:07;10.27;;;0.73;;
31660;SDS011;18267;52.234;7.444;2023-12-20T14:09:34;4.00;;;0.65;;
31660;SDS011;18267;52.234;7.444;2023-12-20T14:12:00;4.30;;;0.63;;
31660;SDS011;18267;52.234;7.444;2023-12-20T14:14:25;4.40;;;0.75;;
31660;SDS011;18267;52.234;7.444;2023-12-20T14:16:51;3.75;;;0.65;;
31660;SDS011;18267;52.234;7.444;2023-12-20T14:19:17;5.47;;;0.60;;
31660;SDS011;18267;52.234;7.444;2023-12-20T14:21:43;5.40;;;0.60;;
31660;SDS011;18267;52.234;7.444;2023-12-20T14:24:10;4.50;;;1.00;;
31660;SDS011;18267;52.234;7.444;2023-12-20T14:26:39;4.40;;;0.98;;
31660;SDS011;18267;52.234;7.444;2023-12-20T14:29:05;6.60;;;0.95;;
31660;SDS011;18267;52.234;7.444;2023-12-20T14:31:32;2.30;;;0.50;;
31660;SDS011;18267;52.234;7.444;2023-12-20T14:33:58;6.35;;;0.70;;
31660;SDS011;18267;52.234;7.444;2023-12-20T14:36:24;10.30;;;0.98;;
31660;SDS011;18267;52.234;7.444;2023-12-20T14:38:50;4.15;;;1.13;;
31660;SDS011;18267;52.234;7.444;2023-12-20T14:41:15;5.43;;;1.13;;
31660;SDS011;18267;52.234;7.444;2023-12-20T14:43:43;6.65;;;1.42;;